Portada
METAR-TAF:

METAR-TAF

Aeroports :

Port Hawkesbury, Nova Escòcia, Canadà

latitud: 45-40N, longitud: 061-23W, altitud: 114 m

Observació

L'informe es va fer fa 15 minuts, a les 01:00 UTC
Vent 8 kt del Est
Temperatura 6°C
Humitat 81%
Pressió 1025 hPa
Visibilitat: 14.5 km
Cel cobert a una alçada de 4600 ft

METAR: CYPD 240100Z AUTO 09008KT 9SM OVC046 06/03 A3027 RMK SLP257

Hora: 22:15 (01:15 UTC)


TAF: manca

Observacions i pronòstics meteorològics de més de 4000 aeroports (METAR i TAF).

Les estacions disponibles són els punts grocs i vermells al mapa.

Posi el ratolí al punt desitjat per veure el nom de l'estació.

Feu clic per veure les observacions i els pronòstics meteorològics.

Per canviar el mapa: feu clic els botons verds amb una creu de color negre per apropar; al botó verd amb un guió per allunyar la imatge; o en les fletxes verdes per a mapes adjacents.


METAR-TAF: